Time;durP1;ratioP1;P1;durP2;ratioP2;P2;SDS_P1;SDS_P2;PMS_P1;PMS_P2;Temp;Humidity;BMP_temperature;BMP_pressure;BME280_temperature;BME280_humidity;BME280_pressure;Samples;Min_cycle;Max_cycle;Signal;HPM_P1;HPM_P2
2023/11/17 00:06:41;;;;;;;71.10;42.00;;;;;;;5.53;94.78;97855.65;435307;1251;112150;-41
2023/11/17 00:16:45;;;;;;;75.90;41.20;;;;;;;5.51;94.69;97850.42;435436;1255;108191;-41
2023/11/17 00:26:48;;;;;;;49.70;30.90;;;;;;;5.48;94.42;97844.45;435475;1250;99204;-40
2023/11/17 00:36:52;;;;;;;55.30;33.00;;;;;;;5.49;94.51;97839.92;435121;1250;108317;-40
2023/11/17 00:46:55;;;;;;;49.40;29.10;;;;;;;5.58;94.70;97832.89;435147;1254;307869;-40
2023/11/17 00:56:59;;;;;;;45.20;26.40;;;;;;;5.64;94.75;97825.83;435342;1250;112052;-41
2023/11/17 01:07:02;;;;;;;51.20;28.10;;;;;;;5.55;94.86;97819.80;435343;1250;107633;-40
2023/11/17 01:17:05;;;;;;;48.60;31.00;;;;;;;5.50;94.69;97814.09;435233;1254;98829;-40
2023/11/17 01:27:09;;;;;;;32.50;20.70;;;;;;;5.54;94.71;97811.27;435281;1255;108215;-40
2023/11/17 01:37:12;;;;;;;29.50;18.90;;;;;;;5.63;94.99;97801.64;435079;1250;99221;-40
2023/11/17 01:47:16;;;;;;;34.40;19.00;;;;;;;5.71;94.98;97787.70;435347;1254;111817;-42
2023/11/17 01:57:21;;;;;;;31.70;22.10;;;;;;;5.75;95.38;97773.37;435403;1255;108295;-40
2023/11/17 02:07:25;;;;;;;40.00;22.30;;;;;;;5.72;95.31;97764.96;436189;1248;97989;-40
2023/11/17 02:17:29;;;;;;;29.80;17.00;;;;;;;5.73;95.06;97763.21;435415;1255;107344;-40
2023/11/17 02:27:42;;;;;;;25.00;15.70;;;;;;;5.74;94.96;97758.20;435439;1256;99214;-41
2023/11/17 02:37:50;;;;;;;20.80;12.70;;;;;;;5.77;94.93;97761.46;435394;1254;111827;-40
2023/11/17 02:58:00;;;;;;;22.80;12.80;;;;;;;5.70;95.24;97756.91;435444;1255;99211;-40
2023/11/17 03:08:04;;;;;;;12.10;8.90;;;;;;;5.65;94.95;97759.49;435445;1255;108044;-41
2023/11/17 03:28:13;;;;;;;9.80;7.30;;;;;;;5.74;94.89;97761.50;435262;1255;111440;-42
2023/11/17 03:38:16;;;;;;;15.50;10.10;;;;;;;5.79;95.07;97764.59;435344;1253;107333;-41
2023/11/17 03:48:22;;;;;;;17.60;10.80;;;;;;;5.67;94.94;97771.51;435588;1256;99254;-41
2023/11/17 03:58:27;;;;;;;11.80;7.00;;;;;;;5.56;94.74;97775.13;435483;1252;107574;-41
2023/11/17 04:08:31;;;;;;;5.40;4.70;;;;;;;5.54;94.77;97771.41;435238;1252;99206;-41
2023/11/17 04:18:34;;;;;;;8.50;5.40;;;;;;;5.56;94.80;97769.85;435391;1251;111030;-40
2023/11/17 04:28:37;;;;;;;11.10;8.00;;;;;;;5.61;95.08;97771.80;435237;1255;108291;-41
2023/11/17 04:38:40;;;;;;;26.30;15.20;;;;;;;5.54;95.11;97769.95;435398;1254;98008;-40
2023/11/17 04:48:44;;;;;;;30.00;18.40;;;;;;;5.48;94.99;97762.85;435446;1253;107794;-41
2023/11/17 04:58:47;;;;;;;44.30;24.40;;;;;;;5.47;94.93;97760.48;435244;1254;97999;-41
2023/11/17 05:08:51;;;;;;;53.80;26.10;;;;;;;5.51;94.99;97765.11;435402;1254;111736;-41
2023/11/17 05:18:55;;;;;;;60.70;34.80;;;;;;;5.49;95.32;97769.41;435432;1262;108296;-39
2023/11/17 05:28:59;;;;;;;70.00;39.00;;;;;;;5.43;95.24;97777.52;435527;1251;99104;-41
2023/11/17 05:39:05;;;;;;;51.40;30.50;;;;;;;5.28;95.00;97788.52;435333;1253;108126;-41
2023/11/17 05:49:09;;;;;;;48.00;27.60;;;;;;;5.22;95.08;97796.58;435275;1252;98008;-41
2023/11/17 05:59:14;;;;;;;54.00;28.90;;;;;;;5.24;95.05;97802.77;435364;1253;112107;-39
2023/11/17 06:09:18;;;;;;;72.80;37.40;;;;;;;5.21;95.30;97801.37;435338;1251;107161;-41
2023/11/17 06:29:24;;;;;;;48.80;27.50;;;;;;;5.07;95.18;97821.00;435354;1251;108171;-39
2023/11/17 06:39:29;;;;;;;44.80;25.70;;;;;;;5.07;95.05;97830.67;435337;1254;98813;-40
2023/11/17 06:49:33;;;;;;;39.70;24.40;;;;;;;5.13;95.36;97840.14;435252;1254;111140;-39
2023/11/17 06:59:36;;;;;;;41.70;24.10;;;;;;;5.23;95.54;97844.98;435368;1253;108718;-40
2023/11/17 07:19:45;;;;;;;38.40;22.00;;;;;;;5.28;95.84;97864.70;435300;1254;109040;-40
2023/11/17 07:29:47;;;;;;;47.10;26.30;;;;;;;5.24;96.14;97869.94;435301;1251;99255;-40
2023/11/17 07:39:50;;;;;;;39.20;22.60;;;;;;;5.34;96.12;97875.00;435290;1273;111988;-40
2023/11/17 07:49:54;;;;;;;43.50;24.70;;;;;;;5.47;96.04;97873.53;435325;1249;106184;-40
2023/11/17 08:10:01;;;;;;;51.60;28.20;;;;;;;5.35;96.38;97891.86;435226;1254;109959;-40
2023/11/17 08:40:16;;;;;;;46.70;27.10;;;;;;;5.20;96.91;97932.61;435389;1250;108606;-39
2023/11/17 08:50:18;;;;;;;44.90;23.20;;;;;;;5.07;97.31;97960.40;435456;1253;99202;-41
2023/11/17 09:20:29;;;;;;;45.70;25.30;;;;;;;4.75;97.57;98001.39;435452;1254;112141;-39
2023/11/17 09:30:32;;;;;;;58.30;29.90;;;;;;;4.76;97.83;98004.89;435309;1255;107853;-39
2023/11/17 10:10:48;;;;;;;39.20;19.90;;;;;;;4.83;98.35;98026.54;435357;1250;111063;-40
2023/11/17 10:20:51;;;;;;;32.60;18.70;;;;;;;4.95;98.43;98027.42;435263;1250;108598;-41
2023/11/17 10:31:00;;;;;;;39.00;22.60;;;;;;;4.98;98.41;98029.06;435380;1254;99365;-40
2023/11/17 10:41:20;;;;;;;53.30;28.20;;;;;;;4.90;98.66;98032.11;435233;1255;110267;-40
2023/11/17 10:51:24;;;;;;;41.60;22.90;;;;;;;4.79;98.80;98040.46;435320;1250;98793;-39
2023/11/17 11:01:30;;;;;;;40.10;23.80;;;;;;;4.76;98.87;98047.33;435272;1254;111420;-40
2023/11/17 11:11:34;;;;;;;47.60;26.40;;;;;;;4.75;99.14;98042.40;435335;1253;107584;-40
2023/11/17 11:21:38;;;;;;;39.40;22.20;;;;;;;4.74;99.38;98048.13;435459;1253;98672;-39
2023/11/17 11:31:41;;;;;;;23.40;12.40;;;;;;;4.56;99.53;98065.45;435411;1254;107716;-40
2023/11/17 12:01:56;;;;;;;17.30;10.00;;;;;;;3.75;99.11;98109.67;435214;1253;107777;-39
2023/11/17 12:12:01;;;;;;;16.20;10.60;;;;;;;3.56;99.04;98127.64;435447;1249;98488;-40
2023/11/17 12:22:05;;;;;;;15.90;11.30;;;;;;;3.49;98.97;98137.30;435218;1272;106783;-40
2023/11/17 12:32:09;;;;;;;23.90;13.70;;;;;;;3.52;98.85;98139.05;435474;1251;98481;-40
2023/11/17 12:42:15;;;;;;;19.50;14.70;;;;;;;3.49;98.73;98143.05;434935;1266;466437;-39
2023/11/17 13:12:24;;;;;;;20.10;14.90;;;;;;;3.23;98.34;98179.09;435280;1254;107118;-40
2023/11/17 13:22:29;;;;;;;19.50;13.60;;;;;;;3.14;98.13;98189.47;435427;1254;99240;-40
2023/11/17 13:32:46;;;;;;;16.70;12.80;;;;;;;3.10;98.10;98210.42;435373;1254;111955;-39
2023/11/17 14:02:57;;;;;;;10.50;8.90;;;;;;;2.53;97.19;98236.14;435248;1250;110567;-39
2023/11/17 14:23:04;;;;;;;13.40;9.50;;;;;;;2.33;97.37;98249.45;435494;1249;112016;-41
2023/11/17 14:33:08;;;;;;;13.30;8.90;;;;;;;2.34;97.13;98253.39;435346;1250;108152;-40
2023/11/17 14:43:12;;;;;;;11.90;9.20;;;;;;;2.39;97.22;98263.33;435336;1254;99156;-39
2023/11/17 14:53:15;;;;;;;18.10;12.80;;;;;;;2.35;97.13;98280.54;435402;1249;107732;-40
2023/11/17 15:13:22;;;;;;;10.90;8.50;;;;;;;2.35;96.96;98302.08;435403;1253;110765;-38
2023/11/17 15:23:28;;;;;;;18.10;13.50;;;;;;;2.41;96.96;98316.34;435474;1250;106580;-39
2023/11/17 15:33:32;;;;;;;27.30;16.90;;;;;;;2.36;96.99;98326.67;435357;1249;99218;-41
2023/11/17 15:43:41;;;;;;;19.60;12.60;;;;;;;2.39;96.86;98339.39;435258;1253;99209;-40
2023/11/17 15:53:44;;;;;;;12.90;10.70;;;;;;;2.48;96.77;98352.86;435440;1251;107910;-40
2023/11/17 16:03:47;;;;;;;22.00;13.90;;;;;;;2.51;96.72;98367.73;435295;1254;99240;-40
2023/11/17 16:13:52;;;;;;;21.00;14.60;;;;;;;2.42;96.81;98379.25;435299;1254;108453;-39
2023/11/17 16:34:02;;;;;;;13.40;10.10;;;;;;;2.45;96.58;98400.73;435292;1255;111831;-40
2023/11/17 16:44:06;;;;;;;21.60;14.40;;;;;;;2.51;96.32;98409.17;435487;1250;108310;-39
2023/11/17 16:54:09;;;;;;;23.90;17.30;;;;;;;2.51;96.52;98414.71;435481;1254;99214;-40
2023/11/17 17:04:12;;;;;;;20.30;13.10;;;;;;;2.44;96.51;98419.30;435314;1253;109937;-39
2023/11/17 17:14:15;;;;;;;20.10;11.90;;;;;;;2.46;96.30;98433.31;435184;1255;97925;-40
2023/11/17 17:24:24;;;;;;;21.70;11.20;;;;;;;2.45;96.22;98438.99;435337;1254;111316;-40
2023/11/17 17:34:27;;;;;;;28.30;13.80;;;;;;;2.50;96.18;98443.21;435396;1253;108349;-40
2023/11/17 17:44:32;;;;;;;19.90;11.60;;;;;;;2.49;96.21;98449.55;435513;1250;98712;-40
2023/11/17 17:54:36;;;;;;;15.40;9.20;;;;;;;2.51;95.84;98462.67;435320;1250;108735;-39
2023/11/17 18:04:39;;;;;;;17.20;11.60;;;;;;;2.56;95.75;98474.80;435062;1254;99135;-41
2023/11/17 18:34:50;;;;;;;22.70;14.70;;;;;;;2.65;95.62;98473.16;435455;1255;99231;-40
2023/11/17 18:54:56;;;;;;;28.50;14.30;;;;;;;2.69;95.73;98477.23;435319;1254;107358;-41
2023/11/17 19:04:59;;;;;;;19.40;12.10;;;;;;;2.63;95.80;98474.51;435249;1255;99171;-42
2023/11/17 19:25:09;;;;;;;18.10;12.10;;;;;;;2.76;95.67;98492.27;435290;1253;98580;-40
2023/11/17 19:35:12;;;;;;;52.70;21.50;;;;;;;2.73;95.78;98491.30;435450;1250;111274;-40
2023/11/17 20:05:23;;;;;;;15.10;10.50;;;;;;;2.76;95.73;98493.58;435201;1253;106778;-39
2023/11/17 20:15:28;;;;;;;16.00;10.80;;;;;;;2.87;95.82;98497.23;435341;1252;99265;-41
2023/11/17 20:25:32;;;;;;;23.60;13.90;;;;;;;2.87;95.85;98502.46;435332;1255;111775;-40
2023/11/17 20:35:37;;;;;;;19.00;9.30;;;;;;;2.83;95.89;98504.62;435270;1253;107224;-40
2023/11/17 20:45:43;;;;;;;17.00;10.60;;;;;;;2.88;95.70;98508.75;435258;1254;97998;-40
2023/11/17 20:55:45;;;;;;;26.30;14.90;;;;;;;2.88;95.78;98509.07;435258;1254;107996;-39
2023/11/17 21:05:49;;;;;;;24.70;12.90;;;;;;;2.91;95.95;98514.24;435319;1250;99237;-39
2023/11/17 21:15:53;;;;;;;35.80;17.40;;;;;;;2.81;96.06;98518.94;435339;1255;111117;-41
2023/11/17 21:46:04;;;;;;;10.90;7.70;;;;;;;2.90;96.05;98537.09;435568;1255;109507;-40
2023/11/17 21:56:08;;;;;;;9.70;7.60;;;;;;;2.92;96.36;98544.34;435381;1250;99221;-41
2023/11/17 22:06:12;;;;;;;14.70;10.10;;;;;;;2.92;96.35;98563.48;435558;1251;110393;-39
2023/11/17 22:16:15;;;;;;;20.40;12.00;;;;;;;2.87;96.63;98572.48;435331;1264;108213;-40
2023/11/17 22:26:24;;;;;;;11.90;8.80;;;;;;;2.85;96.42;98574.23;435421;1254;98745;-40
2023/11/17 22:36:27;;;;;;;8.70;7.30;;;;;;;2.87;96.51;98575.88;435322;1256;107327;-40
2023/11/17 22:46:29;;;;;;;11.30;7.00;;;;;;;2.89;96.59;98587.54;435440;1255;99263;-40
2023/11/17 22:56:33;;;;;;;15.30;8.80;;;;;;;2.89;96.78;98596.18;435355;1256;112571;-39
2023/11/17 23:06:38;;;;;;;27.30;13.00;;;;;;;2.91;96.81;98596.97;435275;1263;108549;-39
2023/11/17 23:16:41;;;;;;;19.50;9.90;;;;;;;2.86;97.06;98591.38;435122;1255;117988;-39
2023/11/17 23:26:45;;;;;;;12.30;9.60;;;;;;;2.86;96.86;98595.34;435378;1253;109400;-39
2023/11/17 23:36:48;;;;;;;8.30;6.90;;;;;;;2.90;96.88;98592.09;435445;1253;97989;-39
